createdAt,value
2022-12-25T00:02:15.662Z,25.30
2022-12-25T00:04:43.108Z,26.35
2022-12-25T00:07:11.321Z,25.08
2022-12-25T00:09:38.846Z,22.65
2022-12-25T00:12:06.807Z,20.88
2022-12-25T00:14:35.785Z,21.15
2022-12-25T00:17:03.632Z,20.55
2022-12-25T00:19:31.389Z,19.75
2022-12-25T00:21:59.117Z,20.57
2022-12-25T00:24:26.973Z,19.55
2022-12-25T00:26:54.751Z,19.60
2022-12-25T00:29:22.972Z,19.20
2022-12-25T00:31:50.969Z,17.00
2022-12-25T00:34:18.772Z,17.07
2022-12-25T00:36:47.045Z,17.98
2022-12-25T00:39:14.409Z,18.32
2022-12-25T00:42:00.459Z,16.95
2022-12-25T00:44:28.475Z,15.53
2022-12-25T00:46:56.067Z,15.40
2022-12-25T00:49:25.495Z,14.83
2022-12-25T00:51:53.303Z,15.23
2022-12-25T00:54:21.238Z,15.28
2022-12-25T00:56:49.057Z,14.83
2022-12-25T00:59:17.029Z,15.93
2022-12-25T01:01:44.979Z,15.75
2022-12-25T01:04:13.217Z,16.77
2022-12-25T01:06:41.103Z,16.70
2022-12-25T01:09:27.761Z,15.58
2022-12-25T01:11:55.477Z,16.85
2022-12-25T01:14:23.509Z,15.05
2022-12-25T01:16:51.271Z,16.55
2022-12-25T01:19:18.986Z,15.93
2022-12-25T01:21:46.787Z,16.97
2022-12-25T01:24:14.739Z,17.62
2022-12-25T01:26:42.500Z,16.85
2022-12-25T01:29:10.196Z,16.35
2022-12-25T01:31:37.958Z,16.55
2022-12-25T01:34:06.382Z,16.82
2022-12-25T01:36:34.231Z,17.95
2022-12-25T01:39:02.018Z,28.67
2022-12-25T01:41:29.607Z,26.93
2022-12-25T01:44:17.809Z,28.60
2022-12-25T01:46:45.880Z,26.20
2022-12-25T01:49:19.206Z,43.83
2022-12-25T01:51:58.280Z,36.85
2022-12-25T01:54:37.417Z,39.67
2022-12-25T01:57:09.566Z,44.15
2022-12-25T01:59:37.772Z,33.98
2022-12-25T02:02:05.410Z,49.23
2022-12-25T02:04:44.608Z,39.92
2022-12-25T02:07:22.432Z,45.30
2022-12-25T02:09:52.023Z,43.73
2022-12-25T02:12:26.958Z,39.27
2022-12-25T02:15:04.902Z,34.63
2022-12-25T02:17:39.772Z,33.02
2022-12-25T02:20:39.748Z,33.65
2022-12-25T02:23:28.139Z,36.80
2022-12-25T02:26:29.572Z,34.03
2022-12-25T02:29:09.485Z,47.67
2022-12-25T02:32:04.340Z,31.65
2022-12-25T02:34:49.143Z,32.55
2022-12-25T02:37:47.323Z,36.00
2022-12-25T02:40:29.726Z,38.85
2022-12-25T02:43:24.746Z,38.60
2022-12-25T02:46:18.649Z,34.30
2022-12-25T02:49:12.099Z,31.77
2022-12-25T02:52:03.293Z,20.72
2022-12-25T02:54:54.852Z,19.73
2022-12-25T02:57:45.489Z,17.40
2022-12-25T03:00:33.485Z,16.05
2022-12-25T03:03:24.547Z,16.40
2022-12-25T03:06:15.710Z,14.33
2022-12-25T03:08:48.026Z,14.65
2022-12-25T03:11:30.824Z,15.43
2022-12-25T03:14:21.138Z,14.43
2022-12-25T03:16:54.149Z,14.40
2022-12-25T03:19:46.090Z,12.75
2022-12-25T03:22:42.550Z,11.85
2022-12-25T03:25:29.196Z,12.60
2022-12-25T03:27:58.415Z,11.40
2022-12-25T03:31:11.526Z,11.85
2022-12-25T03:34:35.771Z,11.85
2022-12-25T03:37:41.928Z,13.93
2022-12-25T03:40:34.411Z,15.00
2022-12-25T03:43:31.978Z,13.10
2022-12-25T03:46:22.562Z,14.18
2022-12-25T03:49:14.694Z,14.15
2022-12-25T03:52:02.700Z,14.63
2022-12-25T03:54:51.789Z,14.43
2022-12-25T03:57:38.007Z,13.58
2022-12-25T04:00:25.502Z,12.80
2022-12-25T04:03:11.855Z,11.53
2022-12-25T04:05:58.438Z,9.85
2022-12-25T04:08:44.794Z,9.85
2022-12-25T04:11:31.415Z,9.93
2022-12-25T04:14:17.391Z,10.75
2022-12-25T04:17:03.535Z,11.00
2022-12-25T04:19:50.200Z,9.98
2022-12-25T04:22:36.459Z,9.85
2022-12-25T04:25:23.151Z,9.58
2022-12-25T04:28:09.463Z,10.18
2022-12-25T04:30:55.759Z,10.00
2022-12-25T04:33:41.697Z,9.43
2022-12-25T04:36:09.869Z,9.88
2022-12-25T04:38:39.261Z,10.90
2022-12-25T04:41:10.151Z,11.10
2022-12-25T04:43:38.315Z,10.72
2022-12-25T04:46:06.391Z,10.10
2022-12-25T04:48:36.477Z,10.65
2022-12-25T04:51:18.991Z,9.88
2022-12-25T04:53:48.176Z,9.80
2022-12-25T04:56:19.236Z,9.80
2022-12-25T04:58:46.934Z,9.35
2022-12-25T05:01:15.580Z,9.75
2022-12-25T05:03:43.843Z,9.88
2022-12-25T05:06:11.983Z,10.43
2022-12-25T05:08:39.835Z,11.05
2022-12-25T05:11:11.050Z,10.88
2022-12-25T05:13:39.192Z,9.23
2022-12-25T05:16:17.221Z,9.28
2022-12-25T05:18:50.577Z,8.90
2022-12-25T05:21:19.201Z,8.58
2022-12-25T05:23:52.607Z,9.30
2022-12-25T05:26:24.233Z,9.45
2022-12-25T05:28:52.715Z,8.98
2022-12-25T05:31:20.744Z,9.23
2022-12-25T05:33:52.528Z,9.20
2022-12-25T05:36:20.485Z,9.13
2022-12-25T05:38:48.417Z,9.73
2022-12-25T05:41:16.210Z,10.32
2022-12-25T05:43:43.970Z,10.30
2022-12-25T05:46:13.872Z,9.45
2022-12-25T05:48:41.896Z,9.08
2022-12-25T05:51:12.358Z,10.82
2022-12-25T05:53:43.454Z,12.63
2022-12-25T05:56:12.197Z,12.20
2022-12-25T05:58:40.460Z,11.95
2022-12-25T06:01:18.044Z,12.35
2022-12-25T06:03:45.971Z,12.85
2022-12-25T06:06:14.285Z,10.45
2022-12-25T06:08:42.298Z,12.15
2022-12-25T06:11:11.130Z,10.93
2022-12-25T06:13:38.923Z,9.55
2022-12-25T06:16:09.682Z,10.82
2022-12-25T06:18:39.863Z,10.85
2022-12-25T06:21:11.006Z,10.35
2022-12-25T06:23:39.279Z,10.28
2022-12-25T06:26:11.136Z,10.82
2022-12-25T06:28:38.691Z,9.45
2022-12-25T06:31:12.437Z,12.23
2022-12-25T06:33:40.640Z,17.32
2022-12-25T06:36:12.983Z,15.70
2022-12-25T06:38:40.788Z,11.20
2022-12-25T06:41:13.638Z,11.63
2022-12-25T06:43:41.251Z,13.13
2022-12-25T06:46:11.980Z,10.88
2022-12-25T06:48:43.066Z,10.95
2022-12-25T06:51:10.814Z,12.37
2022-12-25T06:53:40.116Z,15.08
2022-12-25T06:56:14.209Z,15.35
2022-12-25T06:58:51.446Z,13.93
2022-12-25T07:01:24.513Z,15.35
2022-12-25T07:04:00.227Z,11.38
2022-12-25T07:06:28.472Z,11.20
2022-12-25T07:08:56.523Z,12.53
2022-12-25T07:11:24.873Z,11.65
2022-12-25T07:13:52.686Z,11.28
2022-12-25T07:16:20.682Z,14.73
2022-12-25T07:18:48.434Z,15.88
2022-12-25T07:21:19.443Z,14.87
2022-12-25T07:23:49.883Z,14.25
2022-12-25T07:26:18.337Z,12.03
2022-12-25T07:28:46.237Z,15.05
2022-12-25T07:31:16.538Z,18.10
2022-12-25T07:33:45.438Z,15.90
2022-12-25T07:36:15.326Z,13.35
2022-12-25T07:38:43.734Z,12.03
2022-12-25T07:41:12.544Z,13.35
2022-12-25T07:43:40.901Z,11.25
2022-12-25T07:46:10.100Z,14.35
2022-12-25T07:48:39.759Z,16.15
2022-12-25T07:51:11.722Z,14.83
2022-12-25T07:53:40.570Z,17.95
2022-12-25T07:56:16.808Z,13.55
2022-12-25T07:58:47.879Z,13.48
2022-12-25T08:01:23.303Z,13.28
2022-12-25T08:03:58.330Z,14.58
2022-12-25T08:06:34.586Z,12.13
2022-12-25T08:09:07.245Z,11.88
2022-12-25T08:11:35.980Z,11.63
2022-12-25T08:14:08.038Z,9.58
2022-12-25T08:16:38.029Z,8.73
2022-12-25T08:19:05.650Z,9.95
2022-12-25T08:21:34.608Z,9.33
2022-12-25T08:24:02.882Z,8.83
2022-12-25T08:26:31.362Z,11.28
2022-12-25T08:28:59.315Z,8.70
2022-12-25T08:31:29.396Z,12.23
2022-12-25T08:33:58.924Z,8.93
2022-12-25T08:36:27.079Z,8.28
2022-12-25T08:39:02.090Z,11.25
2022-12-25T08:41:24.837Z,12.03
2022-12-25T08:43:52.687Z,9.68
2022-12-25T08:46:20.809Z,7.85
2022-12-25T08:48:49.927Z,7.45
2022-12-25T08:51:20.964Z,7.50
2022-12-25T08:53:52.052Z,10.58
2022-12-25T08:56:20.569Z,10.63
2022-12-25T08:58:48.907Z,10.80
2022-12-25T09:01:16.772Z,11.15
2022-12-25T09:03:44.929Z,11.45
2022-12-25T09:06:15.956Z,10.68
2022-12-25T09:08:49.248Z,8.93
2022-12-25T09:11:16.343Z,9.90
2022-12-25T09:13:44.152Z,9.93
2022-12-25T09:16:16.656Z,12.13
2022-12-25T09:18:44.832Z,13.25
2022-12-25T09:21:14.611Z,9.50
2022-12-25T09:23:42.949Z,10.25
2022-12-25T09:26:14.466Z,9.78
2022-12-25T09:28:48.750Z,9.93
2022-12-25T09:31:13.190Z,9.68
2022-12-25T09:33:41.330Z,10.38
2022-12-25T09:36:10.068Z,8.83
2022-12-25T09:38:37.547Z,7.30
2022-12-25T09:41:25.695Z,7.25
2022-12-25T09:44:10.505Z,7.25
2022-12-25T09:46:46.863Z,6.70
2022-12-25T09:49:42.778Z,7.80
2022-12-25T09:52:27.256Z,8.08
2022-12-25T09:55:21.224Z,8.15
2022-12-25T09:57:58.266Z,8.68
2022-12-25T10:00:36.153Z,10.35
2022-12-25T10:03:39.452Z,8.90
2022-12-25T10:06:21.902Z,7.65
2022-12-25T10:09:19.401Z,6.70
2022-12-25T10:12:11.746Z,9.55
2022-12-25T10:15:06.568Z,8.88
2022-12-25T10:17:52.335Z,8.83
2022-12-25T10:23:00.550Z,10.00
2022-12-25T10:25:28.495Z,8.88
2022-12-25T10:28:01.680Z,12.80
2022-12-25T10:30:31.050Z,8.10
2022-12-25T10:32:58.866Z,8.98
2022-12-25T10:35:29.549Z,8.20
2022-12-25T10:38:04.408Z,10.20
2022-12-25T10:41:01.590Z,9.83
2022-12-25T10:43:55.066Z,8.75
2022-12-25T10:46:26.884Z,8.70
2022-12-25T10:49:00.745Z,10.08
2022-12-25T10:51:35.318Z,9.78
2022-12-25T10:54:24.399Z,8.83
2022-12-25T10:57:06.422Z,9.18
2022-12-25T10:59:44.601Z,13.32
2022-12-25T11:02:33.230Z,9.78
2022-12-25T11:05:08.200Z,11.63
2022-12-25T11:07:40.305Z,9.50
2022-12-25T11:10:32.537Z,9.88
2022-12-25T11:13:01.803Z,8.80
2022-12-25T11:15:45.752Z,10.68
2022-12-25T11:18:26.488Z,10.25
2022-12-25T11:20:58.317Z,9.43
2022-12-25T11:23:29.623Z,9.58
2022-12-25T11:26:02.031Z,8.38
2022-12-25T11:28:33.628Z,31.05
2022-12-25T11:31:09.610Z,10.08
2022-12-25T11:33:45.383Z,12.15
2022-12-25T11:36:25.016Z,7.67
2022-12-25T11:38:52.757Z,9.73
2022-12-25T11:41:24.623Z,9.68
2022-12-25T11:44:04.019Z,6.72
2022-12-25T11:46:37.240Z,9.70
2022-12-25T11:49:09.646Z,9.50
2022-12-25T11:51:41.544Z,9.28
2022-12-25T11:54:33.550Z,10.55
2022-12-25T11:57:04.432Z,11.38
2022-12-25T11:59:55.869Z,12.63
2022-12-25T12:02:38.530Z,15.55
2022-12-25T12:05:26.997Z,13.15
2022-12-25T12:07:59.608Z,10.05
2022-12-25T12:10:58.532Z,10.35
2022-12-25T12:13:47.162Z,10.48
2022-12-25T12:16:15.017Z,6.55
2022-12-25T12:18:49.810Z,9.33
2022-12-25T12:21:26.548Z,28.02
2022-12-25T12:24:10.025Z,9.73
2022-12-25T12:26:40.908Z,7.03
2022-12-25T12:29:37.626Z,11.53
2022-12-25T12:32:09.890Z,8.98
2022-12-25T12:34:47.539Z,7.33
2022-12-25T12:37:29.472Z,7.80
2022-12-25T12:39:58.274Z,7.87
2022-12-25T12:42:33.118Z,8.13
2022-12-25T12:45:12.621Z,8.25
2022-12-25T12:47:45.987Z,7.70
2022-12-25T12:50:37.043Z,9.05
2022-12-25T12:53:25.460Z,6.10
2022-12-25T12:55:53.541Z,7.33
2022-12-25T12:58:34.649Z,8.65
2022-12-25T13:01:28.289Z,9.48
2022-12-25T13:04:41.795Z,8.60
2022-12-25T13:07:59.306Z,8.03
2022-12-25T13:10:53.041Z,7.72
2022-12-25T13:13:32.473Z,6.42
2022-12-25T13:16:00.149Z,7.22
2022-12-25T13:18:28.228Z,7.42
2022-12-25T13:21:03.881Z,6.22
2022-12-25T13:23:38.865Z,7.60
2022-12-25T13:26:16.744Z,6.97
2022-12-25T13:28:47.373Z,8.58
2022-12-25T13:31:25.824Z,9.55
2022-12-25T13:34:23.765Z,9.03
2022-12-25T13:36:52.362Z,8.78
2022-12-25T13:39:20.715Z,8.70
2022-12-25T13:42:08.979Z,8.28
2022-12-25T13:44:52.286Z,9.10
2022-12-25T13:47:28.678Z,9.70
2022-12-25T13:50:00.153Z,12.20
2022-12-25T13:52:37.431Z,9.58
2022-12-25T13:55:16.447Z,9.90
2022-12-25T13:58:02.677Z,6.95
2022-12-25T14:00:46.432Z,8.45
2022-12-25T14:03:25.852Z,11.10
2022-12-25T14:06:02.008Z,18.90
2022-12-25T14:08:32.013Z,10.08
2022-12-25T14:11:04.473Z,10.93
2022-12-25T14:13:40.344Z,12.60
2022-12-25T14:16:12.346Z,10.45
2022-12-25T14:18:51.905Z,14.30
2022-12-25T14:21:33.309Z,13.30
2022-12-25T14:24:01.548Z,57.88
2022-12-25T14:26:35.853Z,21.90
2022-12-25T14:29:17.837Z,17.35
2022-12-25T14:31:47.474Z,18.55
2022-12-25T14:34:26.805Z,16.60
2022-12-25T14:36:54.839Z,15.45
2022-12-25T14:39:37.818Z,18.15
2022-12-25T14:42:22.381Z,16.17
2022-12-25T14:45:23.421Z,23.42
2022-12-25T14:47:58.473Z,29.02
2022-12-25T14:50:39.080Z,28.60
2022-12-25T14:53:20.483Z,34.30
2022-12-25T14:55:53.902Z,30.40
2022-12-25T14:58:27.835Z,27.58
2022-12-25T15:00:59.247Z,26.52
2022-12-25T15:03:35.862Z,27.82
2022-12-25T15:08:40.885Z,32.98
2022-12-25T15:11:08.940Z,33.28
2022-12-25T15:13:36.697Z,45.10
2022-12-25T15:16:15.115Z,73.33
2022-12-25T15:18:46.587Z,56.45
2022-12-25T15:21:24.183Z,49.45
2022-12-25T15:23:57.445Z,39.45
2022-12-25T15:26:28.740Z,35.03
2022-12-25T15:28:57.851Z,34.35
2022-12-25T15:31:32.386Z,43.95
2022-12-25T15:34:04.058Z,46.48
2022-12-25T15:36:32.284Z,46.48
2022-12-25T15:39:01.134Z,49.10
2022-12-25T15:41:52.526Z,51.50
2022-12-25T15:44:20.994Z,46.15
2022-12-25T15:46:49.031Z,52.03
2022-12-25T15:49:17.496Z,52.35
2022-12-25T15:51:46.968Z,47.35
2022-12-25T15:54:14.954Z,47.03
2022-12-25T15:56:47.140Z,45.55
2022-12-25T15:59:17.506Z,45.40
2022-12-25T16:01:53.164Z,49.83
2022-12-25T16:04:25.293Z,54.03
2022-12-25T16:06:54.790Z,48.98
2022-12-25T16:09:23.131Z,48.90
2022-12-25T16:11:51.283Z,58.30
2022-12-25T16:14:18.966Z,61.13
2022-12-25T16:16:46.765Z,70.32
2022-12-25T16:19:14.417Z,72.40
2022-12-25T16:21:46.993Z,84.35
2022-12-25T16:24:14.767Z,77.62
2022-12-25T16:26:42.963Z,74.22
2022-12-25T16:29:11.120Z,81.47
2022-12-25T16:31:39.424Z,75.80
2022-12-25T16:34:08.228Z,76.42
2022-12-25T16:36:36.183Z,73.85
2022-12-25T16:39:04.508Z,65.78
2022-12-25T16:41:32.969Z,62.78
2022-12-25T16:44:08.003Z,63.00
2022-12-25T16:46:36.951Z,64.85
2022-12-25T16:49:05.216Z,66.20
2022-12-25T16:51:33.310Z,89.62
2022-12-25T16:54:01.297Z,88.47
2022-12-25T16:56:30.255Z,119.33
2022-12-25T16:58:58.778Z,77.53
2022-12-25T17:01:27.124Z,94.40
2022-12-25T17:04:01.188Z,89.35
2022-12-25T17:06:29.219Z,82.75
2022-12-25T17:08:59.822Z,85.72
2022-12-25T17:11:29.782Z,79.12
2022-12-25T17:14:02.064Z,70.47
2022-12-25T17:16:34.254Z,66.35
2022-12-25T17:19:07.778Z,70.60
2022-12-25T17:21:37.845Z,74.53
2022-12-25T17:24:06.773Z,73.28
2022-12-25T17:26:35.449Z,76.67
2022-12-25T17:29:03.745Z,77.60
2022-12-25T17:31:31.548Z,74.65
2022-12-25T17:34:01.567Z,66.80
2022-12-25T17:36:30.938Z,73.78
2022-12-25T17:39:01.223Z,65.92
2022-12-25T17:41:29.169Z,64.47
2022-12-25T17:43:56.907Z,54.08
2022-12-25T17:46:28.497Z,52.17
2022-12-25T17:48:59.661Z,42.20
2022-12-25T17:51:30.262Z,40.20
2022-12-25T17:54:02.657Z,38.40
2022-12-25T17:56:31.616Z,38.55
2022-12-25T17:59:03.958Z,37.50
2022-12-25T18:01:32.729Z,38.25
2022-12-25T18:04:01.120Z,39.55
2022-12-25T18:06:29.270Z,47.98
2022-12-25T18:08:58.013Z,53.92
2022-12-25T18:11:30.914Z,50.48
2022-12-25T18:14:04.720Z,58.10
2022-12-25T18:16:35.479Z,59.85
2022-12-25T18:19:04.022Z,67.75
2022-12-25T18:21:32.016Z,72.75
2022-12-25T18:24:03.775Z,69.87
2022-12-25T18:26:32.599Z,68.50
2022-12-25T18:29:02.456Z,62.73
2022-12-25T18:31:31.282Z,57.13
2022-12-25T18:34:00.161Z,49.55
2022-12-25T18:36:29.541Z,50.78
2022-12-25T18:38:58.830Z,52.15
2022-12-25T18:41:28.232Z,46.77
2022-12-25T18:43:57.579Z,42.58
2022-12-25T18:46:27.380Z,42.78
2022-12-25T18:48:56.924Z,42.48
2022-12-25T18:51:28.694Z,45.15
2022-12-25T18:53:56.029Z,40.80
2022-12-25T18:56:23.648Z,40.70
2022-12-25T18:58:51.452Z,39.67
2022-12-25T19:01:23.533Z,38.78
2022-12-25T19:03:57.160Z,40.67
2022-12-25T19:06:26.515Z,38.67
2022-12-25T19:08:59.120Z,39.25
2022-12-25T19:11:26.885Z,38.58
2022-12-25T19:13:55.831Z,37.48
2022-12-25T19:16:23.932Z,37.03
2022-12-25T19:18:51.771Z,36.70
2022-12-25T19:21:19.705Z,38.42
2022-12-25T19:23:47.585Z,35.45
2022-12-25T19:26:15.287Z,34.23
2022-12-25T19:28:43.171Z,33.60
2022-12-25T19:31:11.949Z,32.70
2022-12-25T19:33:41.906Z,32.80
2022-12-25T19:36:13.798Z,32.95
2022-12-25T19:38:43.450Z,32.53
2022-12-25T19:41:17.792Z,30.08
2022-12-25T19:43:47.900Z,30.02
2022-12-25T19:46:29.441Z,30.97
2022-12-25T19:48:58.719Z,31.40
2022-12-25T19:51:28.760Z,33.35
2022-12-25T19:53:56.797Z,34.50
2022-12-25T19:56:26.822Z,37.38
2022-12-25T19:58:55.533Z,39.00
2022-12-25T20:01:27.255Z,40.17
2022-12-25T20:03:56.755Z,37.83
2022-12-25T20:06:31.669Z,36.55
2022-12-25T20:09:04.651Z,34.90
2022-12-25T20:11:34.704Z,37.83
2022-12-25T20:14:04.503Z,38.30
2022-12-25T20:16:32.738Z,37.08
2022-12-25T20:19:00.409Z,36.60
2022-12-25T20:21:29.328Z,35.63
2022-12-25T20:23:57.373Z,34.88
2022-12-25T20:26:29.007Z,33.98
2022-12-25T20:28:57.480Z,32.98
2022-12-25T20:31:29.201Z,32.83
2022-12-25T20:34:00.472Z,33.38
2022-12-25T20:36:34.429Z,33.53
2022-12-25T20:38:57.671Z,31.35
2022-12-25T20:41:27.328Z,31.85
2022-12-25T20:43:54.970Z,33.05
2022-12-25T20:46:25.229Z,34.95
2022-12-25T20:48:53.575Z,33.50
2022-12-25T20:51:25.355Z,36.65
2022-12-25T20:53:54.342Z,38.55
2022-12-25T20:56:25.423Z,37.40
2022-12-25T20:58:57.637Z,40.05
2022-12-25T21:01:28.215Z,37.10
2022-12-25T21:03:57.218Z,36.25
2022-12-25T21:06:25.017Z,34.50
2022-12-25T21:08:54.486Z,36.17
2022-12-25T21:11:23.023Z,34.65
2022-12-25T21:13:51.023Z,36.77
2022-12-25T21:16:24.908Z,37.75
2022-12-25T21:18:58.851Z,42.78
2022-12-25T21:21:27.474Z,73.47
2022-12-25T21:23:56.670Z,67.95
2022-12-25T21:26:30.448Z,70.90
2022-12-25T21:29:01.724Z,85.87
2022-12-25T21:31:33.021Z,90.25
2022-12-25T21:34:00.635Z,46.23
2022-12-25T21:36:31.819Z,39.83
2022-12-25T21:39:07.518Z,40.00
2022-12-25T21:41:38.118Z,38.40
2022-12-25T21:44:08.456Z,35.28
2022-12-25T21:46:36.199Z,37.35
2022-12-25T21:49:03.967Z,36.73
2022-12-25T21:51:52.720Z,37.08
2022-12-25T21:54:23.696Z,40.67
2022-12-25T21:56:51.530Z,42.38
2022-12-25T21:59:21.637Z,42.17
2022-12-25T22:02:06.845Z,42.58
2022-12-25T22:04:36.570Z,43.60
2022-12-25T22:07:17.206Z,43.52
2022-12-25T22:09:48.571Z,38.98
2022-12-25T22:12:38.129Z,39.80
2022-12-25T22:15:10.774Z,39.42
2022-12-25T22:18:00.209Z,40.55
2022-12-25T22:20:36.152Z,39.78
2022-12-25T22:23:05.074Z,39.20
2022-12-25T22:25:32.890Z,39.88
2022-12-25T22:28:00.678Z,41.33
2022-12-25T22:30:29.274Z,35.55
2022-12-25T22:32:57.387Z,32.85
2022-12-25T22:35:25.202Z,31.75
2022-12-25T22:37:53.642Z,30.62
2022-12-25T22:40:21.417Z,30.10
2022-12-25T22:42:53.184Z,30.32
2022-12-25T22:45:22.799Z,26.10
2022-12-25T22:47:53.390Z,25.60
2022-12-25T22:50:21.925Z,23.73
2022-12-25T22:52:50.565Z,22.55
2022-12-25T22:55:21.899Z,23.47
2022-12-25T22:57:51.689Z,24.18
2022-12-25T23:00:20.759Z,22.98
2022-12-25T23:02:49.075Z,22.30
2022-12-25T23:05:17.757Z,23.22
2022-12-25T23:07:45.456Z,23.95
2022-12-25T23:10:13.411Z,26.93
2022-12-25T23:13:00.125Z,28.12
2022-12-25T23:15:28.457Z,33.25
2022-12-25T23:18:14.435Z,34.60
2022-12-25T23:21:00.818Z,35.25
2022-12-25T23:23:47.478Z,32.55
2022-12-25T23:26:18.415Z,30.20
2022-12-25T23:29:04.714Z,25.50
2022-12-25T23:31:40.198Z,25.32
2022-12-25T23:34:09.893Z,21.55
2022-12-25T23:36:37.700Z,21.70
2022-12-25T23:39:10.025Z,18.52
2022-12-25T23:41:35.892Z,18.75
2022-12-25T23:44:03.651Z,27.77
2022-12-25T23:46:31.704Z,25.72
2022-12-25T23:48:59.439Z,17.82
2022-12-25T23:51:27.417Z,17.52
2022-12-25T23:53:55.292Z,18.30
2022-12-25T23:56:23.523Z,17.32
2022-12-25T23:58:51.518Z,19.67
